Time;durP1;ratioP1;P1;durP2;ratioP2;P2;SDS_P1;SDS_P2;PMS_P1;PMS_P2;Temp;Humidity;BMP_temperature;BMP_pressure;BME280_temperature;BME280_humidity;BME280_pressure;Samples;Min_cycle;Max_cycle;Signal;HPM_P1;HPM_P2
2021/04/24 00:00:27;;;;;;;6.25;3.40;;;4.50;99.90;;;;;;6252566;22;20019;-81
2021/04/24 00:02:59;;;;;;;7.55;3.65;;;4.40;99.90;;;;;;6276319;22;20101;-80
2021/04/24 00:05:33;;;;;;;7.97;3.92;;;4.40;99.90;;;;;;6277178;22;20472;-80
2021/04/24 00:08:06;;;;;;;8.73;4.00;;;4.30;99.90;;;;;;6252272;22;20518;-81
2021/04/24 00:10:40;;;;;;;11.80;4.75;;;4.30;99.90;;;;;;6252468;22;20023;-80
2021/04/24 00:13:12;;;;;;;8.50;3.55;;;4.20;99.90;;;;;;6252204;22;20110;-80
2021/04/24 00:15:44;;;;;;;8.02;3.83;;;4.30;99.90;;;;;;6252165;22;20452;-80
2021/04/24 00:18:15;;;;;;;8.15;4.18;;;4.20;99.90;;;;;;6277419;22;20097;-80
2021/04/24 00:20:47;;;;;;;6.07;3.47;;;4.20;99.90;;;;;;6252509;22;20390;-80
2021/04/24 00:23:18;;;;;;;7.78;4.82;;;4.20;99.90;;;;;;6252073;22;20471;-80
2021/04/24 00:25:50;;;;;;;8.20;4.90;;;4.30;99.90;;;;;;6252101;22;20069;-80
2021/04/24 00:28:21;;;;;;;6.95;4.57;;;4.20;99.90;;;;;;6276281;22;20011;-80
2021/04/24 00:30:52;;;;;;;7.57;4.95;;;4.20;99.90;;;;;;6252068;22;20023;-81
2021/04/24 00:33:24;;;;;;;6.32;3.95;;;4.10;99.90;;;;;;6252372;22;20011;-80
2021/04/24 00:35:52;;;;;;;9.75;4.25;;;4.10;99.90;;;;;;6251376;22;20069;-81
2021/04/24 00:38:18;;;;;;;6.75;4.15;;;4.10;99.90;;;;;;6250445;22;20068;-80
2021/04/24 00:40:50;;;;;;;6.85;4.05;;;4.00;99.90;;;;;;6252438;22;20019;-80
2021/04/24 00:43:21;;;;;;;8.13;5.50;;;3.90;99.90;;;;;;6252254;22;20360;-80
2021/04/24 00:45:53;;;;;;;6.68;4.05;;;3.90;99.90;;;;;;6254395;22;20448;-80
2021/04/24 00:48:24;;;;;;;9.27;5.15;;;3.90;99.90;;;;;;6248894;22;20019;-80
2021/04/24 00:50:56;;;;;;;9.30;4.57;;;3.80;99.90;;;;;;6278808;22;20026;-80
2021/04/24 00:53:27;;;;;;;9.63;4.32;;;3.80;99.90;;;;;;6254076;22;20098;-80
2021/04/24 00:55:58;;;;;;;7.47;4.15;;;3.80;99.90;;;;;;6254717;22;20039;-80
2021/04/24 00:58:26;;;;;;;6.88;4.35;;;3.70;99.90;;;;;;6252576;22;20061;-80
2021/04/24 01:00:57;;;;;;;6.22;4.15;;;3.60;99.90;;;;;;6277538;22;20023;-80
2021/04/24 01:03:28;;;;;;;8.15;4.35;;;3.60;99.90;;;;;;6278009;22;20094;-80
2021/04/24 01:05:55;;;;;;;7.45;4.63;;;3.50;99.90;;;;;;6252583;22;20015;-80
2021/04/24 01:08:26;;;;;;;7.68;4.07;;;3.50;99.90;;;;;;6253016;22;20045;-80
2021/04/24 01:10:58;;;;;;;10.10;3.75;;;3.50;99.90;;;;;;6253704;22;20023;-81
2021/04/24 01:13:29;;;;;;;5.90;3.75;;;3.40;99.90;;;;;;6277771;22;20109;-81
2021/04/24 01:16:01;;;;;;;9.30;3.88;;;3.40;99.90;;;;;;6253741;22;20455;-80
2021/04/24 01:18:33;;;;;;;10.73;3.92;;;3.50;99.90;;;;;;6278921;22;20462;-80
2021/04/24 01:21:05;;;;;;;10.05;4.82;;;3.40;99.90;;;;;;6278260;22;20416;-80
2021/04/24 01:23:37;;;;;;;7.70;4.22;;;3.40;99.90;;;;;;6253534;22;20400;-80
2021/04/24 01:26:08;;;;;;;9.13;4.10;;;3.50;99.90;;;;;;6278306;22;20023;-80
2021/04/24 01:28:39;;;;;;;6.97;4.50;;;3.30;99.90;;;;;;6278116;22;20106;-80
2021/04/24 01:31:12;;;;;;;7.55;4.60;;;3.30;99.90;;;;;;6279151;22;20069;-80
2021/04/24 01:33:43;;;;;;;12.55;4.57;;;3.30;99.90;;;;;;6277927;22;20031;-80
2021/04/24 01:36:14;;;;;;;8.15;4.65;;;3.30;99.90;;;;;;6252822;22;20111;-80
2021/04/24 01:38:40;;;;;;;8.60;4.15;;;3.20;99.90;;;;;;6276638;22;20102;-80
2021/04/24 01:41:12;;;;;;;9.52;4.18;;;3.20;99.90;;;;;;6253315;22;20019;-80
2021/04/24 01:43:52;;;;;;;8.95;4.15;;;3.20;99.90;;;;;;6277657;22;20106;-80
2021/04/24 01:46:24;;;;;;;8.23;4.45;;;3.20;99.90;;;;;;6254255;22;20526;-80
2021/04/24 01:48:55;;;;;;;7.90;4.38;;;3.20;99.90;;;;;;6277733;22;20155;-80
2021/04/24 01:51:27;;;;;;;8.85;4.28;;;3.10;99.90;;;;;;6253812;22;20085;-80
2021/04/24 01:53:59;;;;;;;7.85;4.28;;;3.10;99.90;;;;;;6279525;22;20053;-80
2021/04/24 01:56:55;;;;;;;7.38;3.95;;;3.10;99.90;;;;;;6252846;22;20294;-80
2021/04/24 01:59:29;;;;;;;10.65;4.50;;;3.00;99.90;;;;;;6252765;22;20042;-81
2021/04/24 02:02:00;;;;;;;7.32;4.70;;;3.00;99.90;;;;;;6253514;22;20050;-80
2021/04/24 02:04:32;;;;;;;10.23;4.18;;;3.00;99.90;;;;;;6253458;22;20053;-80
2021/04/24 02:07:04;;;;;;;9.98;4.65;;;3.00;99.90;;;;;;6253480;22;20343;-80
2021/04/24 02:09:35;;;;;;;8.93;4.32;;;2.90;99.90;;;;;;6253045;22;20072;-80
2021/04/24 02:12:08;;;;;;;7.70;5.05;;;2.90;99.90;;;;;;6277910;22;20106;-80
2021/04/24 02:14:43;;;;;;;7.50;4.78;;;2.90;99.90;;;;;;6277906;22;20026;-80
2021/04/24 02:17:23;;;;;;;8.23;4.70;;;2.80;99.90;;;;;;6279368;22;20471;-80
2021/04/24 02:19:54;;;;;;;9.90;4.40;;;2.80;99.90;;;;;;6252784;22;20015;-80
2021/04/24 02:22:26;;;;;;;8.05;4.63;;;2.80;99.90;;;;;;6277342;22;20539;-80
2021/04/24 02:25:00;;;;;;;7.18;4.13;;;2.80;99.90;;;;;;6253335;22;20016;-80
2021/04/24 02:27:32;;;;;;;8.68;4.28;;;2.80;99.90;;;;;;6277622;22;20106;-80
2021/04/24 02:30:12;;;;;;;9.45;3.97;;;2.80;99.90;;;;;;6252871;22;20531;-80
2021/04/24 02:32:45;;;;;;;10.95;4.68;;;2.70;99.90;;;;;;6252986;22;20050;-80
2021/04/24 02:35:25;;;;;;;8.73;4.38;;;2.70;99.90;;;;;;6277479;22;20061;-80
2021/04/24 02:37:56;;;;;;;10.55;5.65;;;2.70;99.90;;;;;;6277578;22;20102;-80
2021/04/24 02:40:29;;;;;;;8.40;5.20;;;2.70;99.90;;;;;;6277234;22;20020;-80
2021/04/24 02:43:01;;;;;;;10.68;5.88;;;2.70;99.90;;;;;;6277281;22;20539;-80
2021/04/24 02:45:32;;;;;;;7.75;4.15;;;2.60;99.90;;;;;;6253245;22;20257;-80
2021/04/24 02:48:04;;;;;;;6.55;4.00;;;2.60;99.90;;;;;;6276914;22;20011;-80
2021/04/24 02:50:36;;;;;;;9.43;4.90;;;2.50;99.90;;;;;;6252964;22;20394;-80
2021/04/24 02:53:08;;;;;;;8.68;5.15;;;2.50;99.90;;;;;;6253144;22;20039;-80
2021/04/24 02:55:40;;;;;;;8.50;4.50;;;2.50;99.90;;;;;;6252921;22;20019;-80
2021/04/24 02:58:11;;;;;;;7.88;4.68;;;2.50;99.90;;;;;;6252534;22;20050;-79
2021/04/24 03:00:43;;;;;;;6.53;4.28;;;2.40;99.90;;;;;;6277091;22;20023;-80
2021/04/24 03:03:15;;;;;;;9.00;4.30;;;2.40;99.90;;;;;;6278598;22;20114;-80
2021/04/24 03:05:46;;;;;;;9.77;4.50;;;2.40;99.90;;;;;;6252867;22;20423;-80
2021/04/24 03:08:18;;;;;;;7.18;4.80;;;2.40;99.90;;;;;;6252156;22;20020;-80
2021/04/24 03:10:50;;;;;;;13.07;4.50;;;2.30;99.90;;;;;;6277102;22;20529;-80
2021/04/24 03:13:21;;;;;;;11.07;5.13;;;2.30;99.90;;;;;;6278452;22;20019;-80
2021/04/24 03:15:52;;;;;;;6.82;4.38;;;2.30;99.90;;;;;;6252323;22;20404;-80
2021/04/24 03:18:24;;;;;;;8.40;5.45;;;2.20;99.90;;;;;;6251930;22;20102;-80
2021/04/24 03:20:55;;;;;;;9.40;5.15;;;2.20;99.90;;;;;;6253124;22;20518;-79
2021/04/24 03:23:27;;;;;;;9.20;4.43;;;2.20;99.90;;;;;;6251960;22;20098;-79
2021/04/24 03:25:58;;;;;;;9.38;4.20;;;2.20;99.90;;;;;;6277056;22;20019;-80
2021/04/24 03:28:29;;;;;;;10.57;4.93;;;2.20;99.90;;;;;;6278332;22;20011;-80
2021/04/24 03:31:00;;;;;;;7.90;4.80;;;2.10;99.90;;;;;;6234496;22;20019;-80
2021/04/24 03:33:32;;;;;;;8.48;4.97;;;2.10;99.90;;;;;;6247532;22;20448;-80
2021/04/24 03:36:04;;;;;;;7.38;4.53;;;2.00;99.90;;;;;;6252847;22;20023;-80
2021/04/24 03:38:35;;;;;;;8.10;4.90;;;2.00;99.90;;;;;;6277803;22;20011;-80
2021/04/24 03:41:08;;;;;;;6.38;4.10;;;1.90;99.90;;;;;;6252258;22;20064;-80
2021/04/24 03:43:39;;;;;;;11.23;5.40;;;1.90;99.90;;;;;;6276604;22;20110;-80
2021/04/24 03:46:11;;;;;;;8.88;5.07;;;1.90;99.90;;;;;;6304315;22;20068;-80
2021/04/24 03:48:42;;;;;;;10.00;5.22;;;1.90;99.90;;;;;;6251760;22;20422;-80
2021/04/24 03:51:14;;;;;;;7.07;5.10;;;1.90;99.90;;;;;;6252410;22;20053;-80
2021/04/24 03:53:45;;;;;;;8.15;4.43;;;1.90;99.90;;;;;;6252328;22;20474;-80
2021/04/24 03:56:11;;;;;;;11.80;5.65;;;1.90;99.90;;;;;;6277059;22;20348;-80
2021/04/24 03:58:43;;;;;;;8.43;5.10;;;1.90;99.90;;;;;;6276271;22;20135;-80
2021/04/24 04:01:14;;;;;;;12.07;4.60;;;1.90;99.90;;;;;;6252294;22;20515;-80
2021/04/24 04:03:46;;;;;;;8.68;5.32;;;1.90;99.90;;;;;;6278038;22;20425;-80
2021/04/24 04:06:17;;;;;;;8.85;4.45;;;1.80;99.90;;;;;;6278090;22;20454;-80
2021/04/24 04:08:48;;;;;;;10.15;5.20;;;1.80;99.90;;;;;;6251594;22;20106;-80
2021/04/24 04:11:20;;;;;;;8.10;4.47;;;1.80;99.90;;;;;;6252457;22;20055;-80
2021/04/24 04:13:51;;;;;;;9.23;4.75;;;1.70;99.90;;;;;;6252484;22;20452;-79
2021/04/24 04:16:23;;;;;;;9.25;5.00;;;1.70;99.90;;;;;;6303893;22;20102;-80
2021/04/24 04:18:54;;;;;;;9.82;4.75;;;1.80;99.90;;;;;;6275441;22;20015;-80
2021/04/24 04:21:26;;;;;;;7.82;5.00;;;1.80;99.90;;;;;;6276698;22;20054;-80
2021/04/24 04:23:57;;;;;;;13.98;4.75;;;1.80;99.90;;;;;;6252398;22;20106;-80
2021/04/24 04:26:28;;;;;;;8.30;4.70;;;1.80;99.90;;;;;;6277982;22;20086;-80
2021/04/24 04:29:00;;;;;;;10.50;4.97;;;1.80;99.90;;;;;;6275780;22;20042;-79
2021/04/24 04:31:31;;;;;;;11.85;6.00;;;1.80;99.90;;;;;;6277936;22;20038;-80
2021/04/24 04:34:06;;;;;;;11.35;5.40;;;1.80;99.90;;;;;;6252237;22;20110;-79
2021/04/24 04:36:37;;;;;;;14.85;5.63;;;1.70;99.90;;;;;;6277851;22;20049;-79
2021/04/24 04:39:09;;;;;;;10.25;5.25;;;1.70;99.90;;;;;;6276953;22;20098;-79
2021/04/24 04:41:40;;;;;;;9.38;5.18;;;1.70;99.90;;;;;;6251851;22;20015;-79
2021/04/24 04:44:06;;;;;;;9.55;5.40;;;1.70;99.90;;;;;;6276244;22;20106;-78
2021/04/24 04:46:32;;;;;;;8.90;4.43;;;1.70;99.90;;;;;;6249753;22;20387;-78
2021/04/24 04:49:04;;;;;;;6.95;4.97;;;1.70;99.90;;;;;;6250932;22;20012;-79
2021/04/24 04:51:35;;;;;;;7.65;4.60;;;1.70;99.90;;;;;;6276229;22;20012;-79
2021/04/24 04:54:06;;;;;;;9.50;4.80;;;1.70;99.90;;;;;;6251866;22;20030;-79
2021/04/24 04:56:38;;;;;;;10.70;4.85;;;1.70;99.90;;;;;;6276511;22;20019;-79
2021/04/24 04:59:09;;;;;;;9.38;5.30;;;1.70;99.90;;;;;;6275471;22;20012;-79
2021/04/24 05:01:40;;;;;;;12.02;5.78;;;1.70;99.90;;;;;;6251743;22;20015;-79
2021/04/24 05:04:11;;;;;;;10.27;6.03;;;1.80;99.90;;;;;;6251818;22;20011;-79
2021/04/24 05:06:43;;;;;;;10.55;5.53;;;1.80;99.90;;;;;;6277425;22;20351;-79
2021/04/24 05:09:15;;;;;;;10.77;6.07;;;1.80;99.90;;;;;;6275487;22;20019;-79
2021/04/24 05:11:46;;;;;;;12.18;5.70;;;1.70;99.90;;;;;;6276073;22;20015;-79
2021/04/24 05:14:18;;;;;;;9.60;5.65;;;1.70;99.90;;;;;;6251703;22;20019;-79
2021/04/24 05:16:49;;;;;;;11.13;5.07;;;1.80;99.90;;;;;;6251708;22;20355;-79
2021/04/24 05:19:20;;;;;;;9.32;5.13;;;1.80;99.90;;;;;;6250787;22;20011;-79
2021/04/24 05:21:52;;;;;;;10.02;5.15;;;1.80;99.90;;;;;;6252175;22;20037;-79
2021/04/24 05:24:24;;;;;;;9.13;5.10;;;1.80;99.90;;;;;;6277519;22;20090;-79
2021/04/24 05:26:55;;;;;;;7.93;5.47;;;1.90;99.90;;;;;;6276564;22;20011;-78
2021/04/24 05:29:21;;;;;;;12.32;5.68;;;1.90;99.90;;;;;;6274448;22;20507;-79
2021/04/24 05:31:52;;;;;;;9.52;5.50;;;2.00;99.90;;;;;;6252131;22;20019;-78
2021/04/24 05:34:23;;;;;;;13.55;5.65;;;2.00;99.90;;;;;;6277030;22;20015;-78
2021/04/24 05:36:55;;;;;;;15.50;6.13;;;2.10;99.90;;;;;;6252569;22;20019;-78
2021/04/24 05:39:26;;;;;;;12.95;5.97;;;2.20;99.90;;;;;;6251318;22;20511;-79
2021/04/24 05:41:57;;;;;;;10.57;5.70;;;2.20;99.90;;;;;;6252240;22;20015;-79
2021/04/24 05:44:24;;;;;;;11.95;6.85;;;2.30;99.90;;;;;;6251613;22;20360;-79
2021/04/24 05:46:55;;;;;;;23.05;8.23;;;2.40;99.90;;;;;;6252564;22;20371;-79
2021/04/24 05:49:26;;;;;;;51.45;10.85;;;2.40;99.90;;;;;;6271440;22;20019;-78
2021/04/24 05:51:58;;;;;;;32.33;9.80;;;2.40;99.90;;;;;;6251841;22;20054;-78
2021/04/24 05:54:29;;;;;;;25.63;8.98;;;2.50;99.90;;;;;;6276867;22;20235;-78
2021/04/24 05:57:01;;;;;;;19.08;8.15;;;2.50;99.90;;;;;;6278714;22;20021;-78
2021/04/24 05:59:32;;;;;;;23.08;7.75;;;2.60;99.90;;;;;;6252247;22;20015;-78
2021/04/24 06:02:03;;;;;;;10.85;7.22;;;2.60;99.90;;;;;;6252706;22;20622;-79
2021/04/24 06:04:34;;;;;;;11.50;6.78;;;2.70;99.90;;;;;;6276894;22;20017;-78
2021/04/24 06:07:06;;;;;;;15.75;7.88;;;2.80;99.90;;;;;;6252959;22;20095;-78
2021/04/24 06:09:32;;;;;;;17.83;8.68;;;2.80;99.90;;;;;;6249175;22;20046;-78
2021/04/24 06:12:03;;;;;;;21.63;11.85;;;2.90;99.90;;;;;;6277829;22;20025;-78
2021/04/24 06:14:29;;;;;;;23.60;12.02;;;2.90;99.90;;;;;;6275371;22;20106;-78
2021/04/24 06:17:01;;;;;;;19.95;11.30;;;3.00;99.90;;;;;;6276560;22;20097;-78
2021/04/24 06:19:33;;;;;;;26.25;12.23;;;3.10;99.90;;;;;;6274048;22;20043;-78
2021/04/24 06:22:04;;;;;;;16.95;8.77;;;3.30;99.90;;;;;;6275778;22;20102;-79
2021/04/24 06:25:12;;;;;;;31.65;16.67;;;3.40;99.90;;;;;;6250386;22;20050;-77
2021/04/24 06:27:38;;;;;;;33.65;15.85;;;3.50;99.90;;;;;;6272593;22;20019;-77
2021/04/24 06:30:07;;;;;;;23.92;11.52;;;3.60;99.90;;;;;;6282282;22;20072;-78
2021/04/24 06:32:39;;;;;;;15.45;8.55;;;3.70;99.90;;;;;;6300802;22;20015;-78
2021/04/24 06:35:11;;;;;;;16.33;9.35;;;3.80;99.90;;;;;;6253244;22;20362;-78
2021/04/24 06:37:38;;;;;;;21.65;11.75;;;3.90;99.90;;;;;;6279022;22;20098;-74
2021/04/24 06:40:13;;;;;;;17.95;11.20;;;4.00;99.90;;;;;;6253662;22;20022;-76
2021/04/24 06:42:39;;;;;;;15.55;9.18;;;4.10;99.90;;;;;;6278855;22;20506;-75
2021/04/24 06:45:12;;;;;;;16.48;9.55;;;4.20;99.90;;;;;;6253518;22;20022;-76
2021/04/24 06:47:44;;;;;;;17.95;10.48;;;4.20;99.90;;;;;;6254722;22;20011;-75
2021/04/24 06:50:16;;;;;;;17.02;9.70;;;4.40;99.90;;;;;;6254076;22;20101;-75
2021/04/24 06:52:48;;;;;;;20.30;9.07;;;4.70;99.90;;;;;;6279352;22;20015;-75
2021/04/24 06:55:19;;;;;;;16.88;9.90;;;5.00;99.90;;;;;;6278675;22;20098;-76
2021/04/24 06:57:50;;;;;;;19.48;11.55;;;5.30;99.90;;;;;;6277522;22;20106;-76
2021/04/24 07:00:22;;;;;;;23.52;12.02;;;5.50;99.90;;;;;;6278185;22;20098;-76
2021/04/24 07:02:54;;;;;;;24.00;14.10;;;5.70;99.90;;;;;;6277766;22;20439;-76
2021/04/24 07:05:20;;;;;;;19.42;11.50;;;5.80;99.90;;;;;;6304486;22;20448;-77
2021/04/24 07:07:57;;;;;;;16.02;10.85;;;5.90;99.90;;;;;;6305897;22;20541;-75
2021/04/24 07:10:35;;;;;;;15.15;8.23;;;6.00;99.90;;;;;;6253799;22;20101;-76
2021/04/24 07:13:01;;;;;;;11.93;7.38;;;6.20;99.90;;;;;;6252599;22;20045;-75
2021/04/24 07:15:33;;;;;;;17.42;9.85;;;6.30;99.90;;;;;;6276941;22;20020;-77
2021/04/24 07:18:05;;;;;;;16.38;11.13;;;6.40;99.90;;;;;;6279576;22;20020;-76
2021/04/24 07:20:37;;;;;;;17.73;11.52;;;6.50;99.90;;;;;;6278081;22;20098;-79
2021/04/24 07:23:09;;;;;;;14.10;8.02;;;6.60;99.90;;;;;;6277645;22;20025;-75
2021/04/24 07:25:36;;;;;;;16.33;9.30;;;6.70;99.90;;;;;;6304298;22;20015;-77
2021/04/24 07:28:07;;;;;;;15.25;10.10;;;6.70;99.90;;;;;;6279551;22;20016;-78
2021/04/24 07:30:38;;;;;;;15.70;9.00;;;6.80;99.90;;;;;;6253484;22;20019;-76
2021/04/24 07:33:09;;;;;;;14.70;8.68;;;6.90;99.90;;;;;;6253465;22;20809;-77
2021/04/24 07:35:41;;;;;;;13.63;8.63;;;7.00;99.90;;;;;;6247156;22;20019;-76
2021/04/24 07:38:07;;;;;;;19.63;9.05;;;7.10;99.90;;;;;;6305111;22;20019;-75
2021/04/24 07:40:38;;;;;;;14.68;8.63;;;7.20;99.90;;;;;;6271879;22;20026;-76
2021/04/24 07:43:11;;;;;;;14.40;8.88;;;7.30;99.90;;;;;;6253299;22;20015;-76
2021/04/24 07:45:38;;;;;;;14.80;8.40;;;7.40;99.90;;;;;;6304105;22;20061;-77
2021/04/24 07:48:10;;;;;;;14.77;8.57;;;7.50;99.90;;;;;;6277688;22;20021;-75
2021/04/24 07:50:37;;;;;;;18.40;9.52;;;7.60;99.90;;;;;;6252433;22;20019;-76
2021/04/24 07:53:08;;;;;;;15.48;8.65;;;7.80;99.90;;;;;;6252678;22;20030;-78
2021/04/24 07:55:40;;;;;;;13.63;8.10;;;7.90;99.90;;;;;;6276565;22;20019;-76
2021/04/24 07:58:11;;;;;;;15.25;8.40;;;8.00;99.90;;;;;;6277501;22;20021;-78
2021/04/24 08:00:43;;;;;;;20.45;9.05;;;8.20;99.90;;;;;;6277065;22;20019;-76
2021/04/24 08:03:09;;;;;;;14.57;8.68;;;8.40;99.90;;;;;;6304293;22;20090;-76
2021/04/24 08:05:40;;;;;;;15.32;8.57;;;8.60;99.90;;;;;;6278121;22;20012;-75
2021/04/24 08:08:11;;;;;;;13.82;7.68;;;8.70;99.90;;;;;;6253135;22;20022;-78
2021/04/24 08:10:43;;;;;;;18.02;8.07;;;8.80;99.90;;;;;;6278799;22;20019;-75
2021/04/24 08:13:14;;;;;;;17.73;10.82;;;8.90;99.90;;;;;;6253030;22;20019;-77
2021/04/24 08:15:45;;;;;;;19.00;7.95;;;9.10;99.90;;;;;;6303525;22;20026;-75
2021/04/24 08:18:17;;;;;;;16.13;8.13;;;9.20;99.90;;;;;;6304040;22;20015;-76
2021/04/24 08:20:48;;;;;;;11.60;7.47;;;9.40;99.90;;;;;;6304550;22;20019;-76
2021/04/24 08:23:19;;;;;;;9.38;6.93;;;9.50;99.90;;;;;;6276749;22;20351;-75
2021/04/24 08:25:50;;;;;;;14.18;8.23;;;9.70;99.90;;;;;;6276632;22;20019;-75
2021/04/24 08:28:16;;;;;;;11.82;7.80;;;9.90;99.90;;;;;;6277119;22;20011;-76
2021/04/24 08:30:48;;;;;;;16.00;7.57;;;10.10;99.90;;;;;;6277157;22;20101;-76
2021/04/24 08:33:19;;;;;;;13.70;7.32;;;10.20;99.90;;;;;;6276705;22;20462;-75
2021/04/24 08:35:50;;;;;;;13.80;7.00;;;10.40;99.90;;;;;;6275950;22;20106;-75
2021/04/24 08:38:21;;;;;;;11.02;7.20;;;10.50;99.90;;;;;;6252669;22;20447;-76
2021/04/24 08:40:53;;;;;;;10.65;6.53;;;10.60;99.20;;;;;;6304425;22;20087;-76
2021/04/24 08:43:19;;;;;;;13.27;6.85;;;10.80;99.10;;;;;;6277225;22;20019;-76
2021/04/24 08:45:47;;;;;;;11.35;7.82;;;10.90;98.10;;;;;;6276154;22;20008;-76
2021/04/24 08:48:21;;;;;;;12.23;6.88;;;11.10;97.50;;;;;;6278202;22;20094;-76
2021/04/24 08:50:54;;;;;;;12.18;6.70;;;11.20;97.20;;;;;;6277116;22;20402;-78
2021/04/24 08:53:21;;;;;;;12.25;7.55;;;11.40;93.70;;;;;;6276744;22;20388;-77
2021/04/24 08:55:53;;;;;;;12.05;6.38;;;11.50;92.70;;;;;;6276787;22;20015;-76
2021/04/24 08:58:20;;;;;;;15.10;7.13;;;11.70;91.40;;;;;;6271205;22;20390;-73
2021/04/24 09:00:52;;;;;;;12.23;6.80;;;11.70;88.30;;;;;;6252340;22;20494;-74
2021/04/24 09:03:24;;;;;;;11.88;6.93;;;11.80;83.30;;;;;;6277972;22;20011;-73
2021/04/24 09:05:52;;;;;;;9.25;6.43;;;12.00;84.70;;;;;;6276928;22;20046;-73
2021/04/24 09:08:26;;;;;;;13.20;6.68;;;12.10;83.80;;;;;;6306813;22;20015;-73
2021/04/24 09:10:57;;;;;;;12.73;7.28;;;12.20;83.10;;;;;;6278937;22;20019;-75
2021/04/24 09:13:25;;;;;;;10.10;6.13;;;12.40;81.40;;;;;;6279089;22;20105;-73
2021/04/24 09:15:57;;;;;;;11.77;6.72;;;12.50;70.80;;;;;;6253437;22;20351;-75
2021/04/24 09:18:29;;;;;;;10.52;6.13;;;12.70;70.60;;;;;;6254871;22;20025;-76
2021/04/24 09:21:03;;;;;;;13.30;5.93;;;12.80;68.90;;;;;;6254651;22;20020;-73
2021/04/24 09:23:36;;;;;;;11.43;7.28;;;12.90;66.30;;;;;;6254653;22;20574;-73
2021/04/24 09:26:15;;;;;;;11.98;6.40;;;13.10;62.50;;;;;;6277331;22;20015;-74
2021/04/24 09:28:50;;;;;;;14.27;7.05;;;13.20;62.00;;;;;;6278390;22;20015;-75
2021/04/24 09:31:24;;;;;;;9.52;5.30;;;13.50;58.20;;;;;;6280611;22;20030;-74
2021/04/24 09:34:02;;;;;;;11.70;5.75;;;13.60;55.90;;;;;;6281017;22;20015;-76
2021/04/24 09:36:35;;;;;;;11.38;5.95;;;13.60;55.20;;;;;;6279088;22;20019;-77
2021/04/24 09:39:09;;;;;;;9.60;6.05;;;13.70;53.40;;;;;;6305491;22;20022;-76
2021/04/24 09:41:43;;;;;;;;;;;13.80;52.30;;;;;;6254892;22;20058;-75
2021/04/24 09:44:12;;;;;;;11.48;6.55;;;13.90;52.80;;;;;;6277867;22;20010;-76
2021/04/24 09:46:47;;;;;;;7.97;5.63;;;14.10;54.90;;;;;;6305929;22;20019;-77
2021/04/24 09:49:20;;;;;;;11.27;6.85;;;14.20;53.80;;;;;;6253965;22;20023;-76
2021/04/24 09:51:56;;;;;;;8.60;6.05;;;14.30;53.60;;;;;;6305562;22;20019;-76
2021/04/24 09:54:37;;;;;;;16.15;6.30;;;14.40;52.50;;;;;;6278793;22;20095;-75
2021/04/24 09:57:09;;;;;;;10.40;6.63;;;14.50;53.00;;;;;;6305811;22;20019;-76
2021/04/24 09:59:58;;;;;;;12.60;7.03;;;14.60;51.60;;;;;;6305579;22;20015;-75
2021/04/24 10:02:41;;;;;;;8.05;6.05;;;14.70;50.20;;;;;;6281574;22;20081;-75
2021/04/24 10:05:19;;;;;;;13.30;6.40;;;14.70;49.30;;;;;;6278576;22;20094;-76
2021/04/24 10:07:55;;;;;;;9.32;5.93;;;14.80;48.20;;;;;;6277783;22;20019;-76
2021/04/24 10:10:29;;;;;;;9.57;6.88;;;14.90;50.50;;;;;;6278267;22;20041;-76
2021/04/24 10:13:07;;;;;;;14.57;7.15;;;15.00;49.30;;;;;;6278336;22;20019;-76
2021/04/24 10:15:42;;;;;;;10.65;6.55;;;15.00;48.50;;;;;;6305014;22;20339;-76
2021/04/24 10:18:15;;;;;;;11.80;6.95;;;15.00;48.60;;;;;;6277984;22;20521;-76
2021/04/24 10:20:47;;;;;;;;;;;15.10;49.70;;;;;;6254446;22;20098;-78
2021/04/24 10:23:15;;;;;;;11.80;6.68;;;15.20;50.20;;;;;;6278249;22;20001;-76
2021/04/24 10:25:46;;;;;;;19.55;7.78;;;15.30;48.10;;;;;;6278786;22;20011;-75
2021/04/24 10:28:19;;;;;;;12.05;7.13;;;15.40;47.80;;;;;;6305207;22;20022;-76
2021/04/24 10:30:50;;;;;;;12.25;5.93;;;15.40;46.90;;;;;;6252639;22;20027;-76
2021/04/24 10:33:22;;;;;;;11.35;6.53;;;15.50;47.50;;;;;;6279424;22;20050;-78
2021/04/24 10:35:54;;;;;;;12.05;6.30;;;15.70;47.00;;;;;;6278672;22;20015;-76
2021/04/24 10:38:26;;;;;;;9.65;6.43;;;15.80;46.50;;;;;;6306026;22;20086;-82
2021/04/24 10:40:57;;;;;;;10.70;6.25;;;15.80;45.40;;;;;;6256016;22;20045;-75
2021/04/24 10:43:24;;;;;;;11.00;6.30;;;15.90;45.60;;;;;;6278792;22;20094;-75
2021/04/24 10:46:15;;;;;;;9.35;5.82;;;16.00;44.00;;;;;;6277344;22;20037;-75
2021/04/24 10:48:46;;;;;;;13.57;6.32;;;16.00;43.90;;;;;;6278168;22;20015;-75
2021/04/24 10:51:17;;;;;;;9.18;5.57;;;16.00;43.40;;;;;;6279388;22;20041;-75
2021/04/24 10:54:12;;;;;;;9.50;5.88;;;16.00;43.20;;;;;;6253792;22;20019;-78
2021/04/24 10:56:43;;;;;;;;;;;16.10;42.80;;;;;;6278389;22;20098;-76
2021/04/24 10:59:30;;;;;;;10.70;6.03;;;16.20;43.40;;;;;;6279896;22;20014;-78
2021/04/24 11:02:05;;;;;;;10.32;6.57;;;16.20;41.50;;;;;;6277849;22;20012;-75
2021/04/24 11:04:49;;;;;;;9.88;5.70;;;16.30;41.80;;;;;;6278297;22;20017;-75
2021/04/24 11:07:26;;;;;;;13.13;5.97;;;16.30;42.00;;;;;;6279405;22;20022;-75
2021/04/24 11:10:13;;;;;;;8.18;5.50;;;16.50;41.70;;;;;;6277940;22;20022;-77
2021/04/24 11:12:47;;;;;;;8.52;5.38;;;16.60;39.30;;;;;;6277567;22;20025;-76
2021/04/24 11:15:21;;;;;;;11.00;6.85;;;16.50;39.90;;;;;;6277011;22;20015;-79
2021/04/24 11:17:55;;;;;;;8.90;5.35;;;16.50;40.50;;;;;;6277389;22;20019;-75
2021/04/24 11:20:56;;;;;;;10.57;7.18;;;16.50;39.30;;;;;;6279309;22;20073;-79
2021/04/24 11:23:35;;;;;;;7.75;5.60;;;16.50;40.10;;;;;;6253549;22;20023;-75
2021/04/24 11:26:17;;;;;;;11.45;5.53;;;16.60;38.40;;;;;;6304057;22;20011;-75
2021/04/24 11:29:13;;;;;;;9.63;5.38;;;16.50;39.40;;;;;;6253780;22;20019;-72
2021/04/24 11:31:49;;;;;;;12.77;5.80;;;16.50;39.00;;;;;;6253860;22;20387;-73
2021/04/24 11:34:36;;;;;;;10.27;4.68;;;16.70;39.80;;;;;;6278383;22;20065;-73
2021/04/24 11:40:07;;;;;;;8.55;4.57;;;17.00;37.50;;;;;;6305278;22;20015;-76
2021/04/24 11:42:49;;;;;;;10.60;4.50;;;17.00;36.60;;;;;;6278932;22;20073;-76
2021/04/24 11:46:01;;;;;;;6.63;4.22;;;17.10;35.70;;;;;;6277934;22;20069;-76
2021/04/24 11:48:46;;;;;;;7.95;4.97;;;17.20;36.50;;;;;;6278806;22;20018;-75
2021/04/24 11:51:34;;;;;;;8.02;4.78;;;17.30;35.30;;;;;;6253348;22;20023;-76
2021/04/24 11:54:12;;;;;;;8.07;4.78;;;17.30;35.10;;;;;;6278550;22;20019;-78
2021/04/24 11:56:46;;;;;;;7.90;4.70;;;17.30;35.80;;;;;;6279300;22;20019;-75
2021/04/24 11:59:47;;;;;;;10.48;4.50;;;17.30;35.80;;;;;;6278927;22;20038;-76
2021/04/24 12:02:34;;;;;;;8.70;4.80;;;17.50;35.20;;;;;;6253179;22;20045;-76
2021/04/24 12:05:09;;;;;;;5.72;4.38;;;17.60;34.10;;;;;;6252043;22;20045;-75
2021/04/24 12:07:47;;;;;;;7.95;4.20;;;17.60;33.70;;;;;;6276048;22;20328;-75
2021/04/24 12:10:25;;;;;;;13.18;5.47;;;17.70;34.90;;;;;;6278700;22;20054;-75
2021/04/24 12:13:10;;;;;;;6.43;4.70;;;17.80;35.30;;;;;;6302761;22;20378;-78
2021/04/24 12:15:44;;;;;;;11.27;6.65;;;17.90;34.70;;;;;;6276316;22;20019;-75
2021/04/24 12:18:10;;;;;;;8.30;5.28;;;18.00;34.40;;;;;;6303033;22;20023;-74
2021/04/24 12:20:43;;;;;;;9.75;5.45;;;18.10;34.30;;;;;;6277201;22;20018;-77
2021/04/24 12:23:17;;;;;;;9.02;5.07;;;18.20;36.40;;;;;;6275996;22;20022;-75
2021/04/24 12:25:48;;;;;;;8.65;5.35;;;18.30;36.30;;;;;;6302365;22;20092;-76
2021/04/24 12:28:17;;;;;;;8.43;4.95;;;18.40;35.40;;;;;;6277147;22;20015;-76
2021/04/24 12:30:50;;;;;;;9.15;5.80;;;18.40;35.40;;;;;;6277276;22;20015;-77
2021/04/24 12:33:22;;;;;;;11.77;5.78;;;18.40;36.00;;;;;;6252550;22;20543;-76
2021/04/24 12:35:56;;;;;;;14.43;5.97;;;18.40;35.30;;;;;;6303014;22;20019;-78
2021/04/24 12:38:31;;;;;;;7.95;5.90;;;18.40;35.80;;;;;;6277273;22;20098;-76
2021/04/24 12:41:04;;;;;;;6.85;5.50;;;18.40;35.10;;;;;;6303857;22;20062;-76
2021/04/24 12:43:42;;;;;;;13.68;5.78;;;18.50;36.10;;;;;;6252609;22;20550;-75
2021/04/24 12:46:13;;;;;;;8.35;6.03;;;18.50;36.50;;;;;;6303254;22;20022;-76
2021/04/24 12:48:48;;;;;;;9.50;5.32;;;18.60;35.80;;;;;;6252574;22;20470;-77
2021/04/24 12:51:21;;;;;;;8.80;5.80;;;18.50;35.50;;;;;;6276725;22;20070;-76
2021/04/24 12:53:53;;;;;;;9.95;5.75;;;18.50;36.00;;;;;;6252643;22;20629;-75
2021/04/24 12:56:26;;;;;;;7.00;5.30;;;18.60;35.80;;;;;;6251508;22;20019;-76
2021/04/24 12:59:03;;;;;;;7.47;5.40;;;18.70;35.60;;;;;;6276992;22;20042;-78
2021/04/24 13:01:36;;;;;;;8.77;5.78;;;18.80;36.10;;;;;;6252059;22;20518;-76
2021/04/24 13:04:14;;;;;;;8.77;6.25;;;18.80;34.00;;;;;;6251723;22;20015;-77
2021/04/24 13:06:53;;;;;;;9.77;6.05;;;18.70;34.80;;;;;;6276945;22;20102;-75
2021/04/24 13:09:33;;;;;;;10.75;6.05;;;18.80;36.40;;;;;;6304429;22;20011;-76
2021/04/24 13:12:10;;;;;;;9.23;6.00;;;18.80;34.00;;;;;;6301945;22;20021;-78
2021/04/24 13:14:46;;;;;;;9.23;5.65;;;18.80;33.80;;;;;;6275196;22;20102;-76
2021/04/24 13:17:20;;;;;;;9.23;5.65;;;18.90;34.40;;;;;;6252850;22;20086;-76
2021/04/24 13:19:56;;;;;;;10.43;5.85;;;19.00;34.40;;;;;;6252416;22;20015;-77